createdAt,value
2024-04-15T00:00:22.676Z,18.50
2024-04-15T00:05:27.919Z,18.23
2024-04-15T00:10:33.059Z,18.38
2024-04-15T00:15:40.881Z,17.50
2024-04-15T00:20:46.028Z,18.48
2024-04-15T00:25:51.170Z,18.49
2024-04-15T00:31:00.464Z,17.63
2024-04-15T00:36:06.040Z,18.44
2024-04-15T00:41:11.218Z,18.41
2024-04-15T00:46:19.631Z,17.64
2024-04-15T00:51:26.258Z,18.36
2024-04-15T00:56:31.618Z,17.52
2024-04-15T01:01:40.216Z,18.30
2024-04-15T01:06:46.385Z,17.74
2024-04-15T01:11:51.593Z,17.29
2024-04-15T01:16:59.411Z,17.39
2024-04-15T01:22:07.893Z,17.53
2024-04-15T01:27:16.774Z,17.77
2024-04-15T01:32:22.292Z,17.21
2024-04-15T01:37:27.425Z,17.23
2024-04-15T01:42:35.233Z,16.88
2024-04-15T01:47:41.989Z,17.42
2024-04-15T01:52:47.934Z,17.18
2024-04-15T01:57:55.877Z,17.30
2024-04-15T02:03:01.148Z,16.69
2024-04-15T02:08:06.689Z,16.72
2024-04-15T02:13:14.787Z,15.68
2024-04-15T02:18:20.351Z,16.82
2024-04-15T02:23:25.642Z,17.07
2024-04-15T02:28:33.464Z,17.11
2024-04-15T02:33:38.755Z,16.90
2024-04-15T02:38:44.327Z,15.19
2024-04-15T02:43:52.079Z,17.25
2024-04-15T02:48:57.400Z,17.10
2024-04-15T02:54:02.543Z,17.22
2024-04-15T02:59:10.304Z,17.28
2024-04-15T03:04:15.542Z,17.14
2024-04-15T03:09:22.408Z,14.54
2024-04-15T03:14:30.234Z,16.20
2024-04-15T03:19:35.385Z,16.72
2024-04-15T03:24:40.563Z,16.41
2024-04-15T03:29:48.555Z,16.30
2024-04-15T03:34:53.658Z,16.21
2024-04-15T03:39:58.912Z,16.59
2024-04-15T03:45:07.375Z,16.61
2024-04-15T03:50:12.505Z,15.92
2024-04-15T03:55:17.873Z,16.46
2024-04-15T04:00:25.802Z,16.07
2024-04-15T04:05:30.951Z,16.35
2024-04-15T04:10:36.815Z,16.49
2024-04-15T04:15:45.792Z,16.56
2024-04-15T04:20:50.972Z,14.65
2024-04-15T04:25:56.144Z,16.19
2024-04-15T04:31:07.095Z,16.04
2024-04-15T04:36:12.731Z,16.02
2024-04-15T04:41:18.141Z,15.83
2024-04-15T04:46:27.129Z,16.32
2024-04-15T04:51:32.730Z,16.19
2024-04-15T04:56:38.112Z,16.00
2024-04-15T05:01:51.441Z,16.04
2024-04-15T05:06:58.715Z,15.98
2024-04-15T05:12:03.942Z,15.87
2024-04-15T05:17:11.996Z,15.59
2024-04-15T05:22:17.358Z,15.57
2024-04-15T05:27:22.544Z,15.75
2024-04-15T05:32:30.702Z,15.42
2024-04-15T05:37:36.060Z,15.74
2024-04-15T05:42:43.561Z,15.68
2024-04-15T05:47:51.480Z,15.44
2024-04-15T05:52:56.729Z,15.45
2024-04-15T05:58:01.944Z,15.27
2024-04-15T06:03:09.988Z,14.90
2024-04-15T06:08:15.236Z,15.11
2024-04-15T06:13:20.667Z,14.86
2024-04-15T06:18:28.743Z,15.03
2024-04-15T06:23:33.901Z,14.88
2024-04-15T06:28:39.064Z,14.93
2024-04-15T06:33:46.882Z,14.93
2024-04-15T06:38:52.021Z,14.80
2024-04-15T06:43:57.359Z,14.39
2024-04-15T06:49:05.160Z,14.36
2024-04-15T06:54:10.918Z,14.60
2024-04-15T06:59:16.070Z,14.50
2024-04-15T07:04:23.912Z,12.26
2024-04-15T07:09:29.139Z,14.38
2024-04-15T07:14:34.316Z,13.47
2024-04-15T07:19:42.119Z,14.26
2024-04-15T07:24:47.639Z,13.72
2024-04-15T07:29:52.869Z,13.56
2024-04-15T07:35:00.776Z,14.35
2024-04-15T07:40:06.708Z,14.38
2024-04-15T07:45:12.129Z,14.13
2024-04-15T07:50:20.049Z,14.56
2024-04-15T07:55:25.402Z,14.12
2024-04-15T08:00:30.893Z,14.47
2024-04-15T08:05:38.775Z,14.63
2024-04-15T08:10:44.049Z,14.25
2024-04-15T08:15:54.343Z,14.42
2024-04-15T08:21:02.327Z,13.49
2024-04-15T08:26:07.805Z,14.13
2024-04-15T08:31:18.465Z,13.89
2024-04-15T08:36:26.285Z,12.62
2024-04-15T08:41:33.051Z,14.57
2024-04-15T08:46:44.988Z,13.10
2024-04-15T08:51:54.924Z,14.97
2024-04-15T08:57:05.024Z,14.84
2024-04-15T09:02:10.353Z,14.78
2024-04-15T09:07:18.509Z,14.77
2024-04-15T09:12:23.849Z,14.20
2024-04-15T09:17:29.107Z,15.01
2024-04-15T09:22:38.207Z,15.08
2024-04-15T09:27:44.157Z,15.00
2024-04-15T09:32:50.043Z,14.16
2024-04-15T09:37:58.832Z,14.12
2024-04-15T09:43:05.688Z,14.45
2024-04-15T09:48:16.526Z,14.94
2024-04-15T09:53:34.227Z,14.92
2024-04-15T09:58:41.179Z,14.64
2024-04-15T10:03:50.360Z,15.20
2024-04-15T10:08:59.240Z,15.12
2024-04-15T10:14:05.022Z,15.31
2024-04-15T10:19:12.528Z,15.57
2024-04-15T10:24:20.687Z,15.03
2024-04-15T10:29:29.275Z,15.71
2024-04-15T10:34:34.861Z,16.06
2024-04-15T10:39:47.574Z,16.14
2024-04-15T10:44:56.181Z,16.12
2024-04-15T10:50:01.492Z,16.38
2024-04-15T10:55:11.128Z,16.52
2024-04-15T11:00:17.971Z,16.60
2024-04-15T11:05:24.389Z,16.20
2024-04-15T11:10:32.799Z,16.88
2024-04-15T11:15:40.403Z,15.60
2024-04-15T11:20:45.728Z,17.11
2024-04-15T11:25:54.324Z,16.51
2024-04-15T11:31:01.755Z,17.32
2024-04-15T11:36:07.677Z,17.46
2024-04-15T11:41:15.598Z,17.38
2024-04-15T11:46:22.415Z,17.56
2024-04-15T11:51:27.910Z,17.34
2024-04-15T11:56:36.335Z,16.43
2024-04-15T12:01:41.816Z,17.65
2024-04-15T12:06:47.304Z,17.65
2024-04-15T12:11:55.166Z,17.28
2024-04-15T12:17:00.796Z,17.48
2024-04-15T12:22:06.073Z,17.21
2024-04-15T12:27:13.921Z,17.51
2024-04-15T12:32:25.200Z,16.96
2024-04-15T12:37:30.473Z,17.38
2024-04-15T12:42:38.331Z,17.47
2024-04-15T12:47:43.773Z,17.45
2024-04-15T12:52:48.992Z,17.41
2024-04-15T12:57:56.861Z,16.91
2024-04-15T13:03:02.760Z,17.33
2024-04-15T13:08:35.340Z,17.62
2024-04-15T13:13:43.201Z,17.41
2024-04-15T13:18:48.403Z,17.43
2024-04-15T13:23:56.344Z,17.73
2024-04-15T13:29:04.282Z,17.48
2024-04-15T13:34:09.737Z,17.31
2024-04-15T13:39:15.471Z,18.13
2024-04-15T13:44:23.443Z,18.16
2024-04-15T13:49:34.078Z,17.99
2024-04-15T13:54:39.226Z,17.79
2024-04-15T13:59:47.139Z,18.46
2024-04-15T14:04:53.472Z,17.24
2024-04-15T14:10:02.070Z,17.50
2024-04-15T14:15:11.809Z,17.84
2024-04-15T14:20:17.061Z,18.40
2024-04-15T14:25:22.405Z,19.19
2024-04-15T14:30:30.245Z,19.26
2024-04-15T14:35:35.559Z,17.80
2024-04-15T14:40:41.031Z,19.32
2024-04-15T14:45:53.032Z,19.30
2024-04-15T14:50:59.888Z,19.25
2024-04-15T14:56:05.123Z,18.94
2024-04-15T15:01:13.216Z,18.69
2024-04-15T15:06:18.528Z,18.39
2024-04-15T15:11:23.775Z,18.25
2024-04-15T15:16:31.834Z,18.58
2024-04-15T15:21:37.039Z,17.43
2024-04-15T15:26:42.361Z,17.61
2024-04-15T15:31:50.176Z,18.29
2024-04-15T15:36:57.136Z,16.48
2024-04-15T15:42:02.310Z,18.13
2024-04-15T15:47:12.771Z,18.19
2024-04-15T15:52:18.170Z,17.93
2024-04-15T15:57:23.401Z,17.50
2024-04-15T16:02:41.029Z,17.42
2024-04-15T16:07:49.558Z,17.15
2024-04-15T16:12:54.770Z,17.32
2024-04-15T16:18:06.226Z,17.17
2024-04-15T16:23:11.407Z,16.44
2024-04-15T16:28:16.645Z,16.63
2024-04-15T16:33:24.528Z,16.89
2024-04-15T16:38:29.770Z,16.77
2024-04-15T16:43:34.914Z,16.89
2024-04-15T16:48:42.815Z,16.78
2024-04-15T16:53:47.955Z,16.56
2024-04-15T16:58:54.338Z,15.44
2024-04-15T17:04:02.222Z,16.29
2024-04-15T17:09:07.501Z,16.51
2024-04-15T17:14:13.273Z,16.63
2024-04-15T17:19:21.159Z,16.62
2024-04-15T17:24:26.356Z,16.10
2024-04-15T17:29:31.612Z,16.02
2024-04-15T17:34:39.425Z,16.23
2024-04-15T17:39:45.486Z,14.33
2024-04-15T17:44:52.559Z,15.29
2024-04-15T17:50:00.592Z,16.20
2024-04-15T17:55:05.768Z,16.10
2024-04-15T18:00:13.285Z,15.90
2024-04-15T18:05:21.132Z,16.01
2024-04-15T18:10:26.471Z,15.57
2024-04-15T18:15:31.745Z,15.08
2024-04-15T18:20:39.630Z,15.99
2024-04-15T18:25:44.893Z,15.81
2024-04-15T18:30:51.418Z,15.50
2024-04-15T18:35:59.645Z,15.92
2024-04-15T18:41:04.945Z,15.36
2024-04-15T18:46:10.712Z,15.23
2024-04-15T18:51:18.575Z,15.30
2024-04-15T18:56:24.733Z,13.75
2024-04-15T19:01:29.975Z,13.74
2024-04-15T19:06:38.146Z,12.62
2024-04-15T19:11:43.328Z,11.61
2024-04-15T19:16:48.568Z,11.43
2024-04-15T19:21:56.391Z,10.52
2024-04-15T19:27:04.660Z,11.35
2024-04-15T19:32:10.152Z,11.28
2024-04-15T19:37:18.201Z,10.46
2024-04-15T19:42:23.424Z,10.37
2024-04-15T19:47:29.529Z,9.62
2024-04-15T19:52:37.680Z,9.51
2024-04-15T19:57:45.265Z,8.70
2024-04-15T20:02:50.548Z,8.43
2024-04-15T20:08:05.329Z,7.18
2024-04-15T20:13:14.473Z,8.45
2024-04-15T20:18:35.226Z,8.04
2024-04-15T20:23:43.101Z,7.78
2024-04-15T20:28:48.286Z,7.66
2024-04-15T20:33:53.760Z,7.34
2024-04-15T20:39:02.529Z,7.32
2024-04-15T20:44:08.076Z,7.52
2024-04-15T20:49:13.277Z,6.88
2024-04-15T20:54:21.297Z,7.10
2024-04-15T20:59:26.591Z,6.35
2024-04-15T21:04:31.797Z,6.27
2024-04-15T21:09:39.852Z,5.94
2024-04-15T21:14:44.977Z,6.47
2024-04-15T21:19:50.085Z,6.68
2024-04-15T21:24:58.113Z,6.36
2024-04-15T21:30:03.346Z,6.29
2024-04-15T21:35:09.173Z,6.65
2024-04-15T21:40:17.023Z,4.64
2024-04-15T21:45:22.240Z,6.27
2024-04-15T21:50:27.384Z,6.54
2024-04-15T21:55:35.330Z,5.84
2024-04-15T22:00:40.648Z,6.04
2024-04-15T22:05:45.863Z,6.47
2024-04-15T22:10:53.776Z,6.40
2024-04-15T22:15:58.933Z,6.06
2024-04-15T22:21:04.187Z,6.38
2024-04-15T22:26:12.078Z,6.62
2024-04-15T22:31:17.256Z,6.37
2024-04-15T22:36:22.382Z,6.53
2024-04-15T22:41:30.162Z,6.86
2024-04-15T22:46:35.500Z,7.02
2024-04-15T22:51:40.644Z,7.06
2024-04-15T22:56:48.606Z,6.94
2024-04-15T23:01:53.823Z,7.12
2024-04-15T23:06:59.218Z,7.19
2024-04-15T23:12:07.847Z,6.52
2024-04-15T23:17:13.090Z,6.82
2024-04-15T23:22:18.306Z,6.75
2024-04-15T23:27:26.166Z,7.19
2024-04-15T23:32:31.402Z,7.17
2024-04-15T23:37:37.671Z,6.93
2024-04-15T23:42:46.275Z,6.72
2024-04-15T23:48:10.582Z,7.30
2024-04-15T23:53:34.235Z,7.33
2024-04-15T23:59:01.030Z,7.05
